Time;durP1;ratioP1;P1;durP2;ratioP2;P2;SDS_P1;SDS_P2;PMS_P1;PMS_P2;Temp;Humidity;BMP_temperature;BMP_pressure;BME280_temperature;BME280_humidity;BME280_pressure;Samples;Min_cycle;Max_cycle;Signal;HPM_P1;HPM_P2
2022/02/17 00:00:39;;;;;;;0.30;0.30;;;;;;;11.72;87.21;97546.47;4954149;28;20358;-73
2022/02/17 00:03:04;;;;;;;0.30;0.30;;;;;;;11.74;86.79;97536.88;4950466;29;20468;-73
2022/02/17 00:05:30;;;;;;;1.23;0.95;;;;;;;11.88;85.98;97533.72;4948319;29;20090;-73
2022/02/17 00:07:56;;;;;;;0.35;0.35;;;;;;;11.81;86.15;97533.13;4953886;28;20392;-73
2022/02/17 00:10:23;;;;;;;0.38;0.38;;;;;;;11.80;86.47;97528.84;4954100;28;20078;-73
2022/02/17 00:12:49;;;;;;;0.40;0.40;;;;;;;11.85;86.47;97534.69;4954165;28;20027;-73
2022/02/17 00:15:15;;;;;;;0.30;0.30;;;;;;;11.89;85.03;97515.47;4954072;28;20038;-73
2022/02/17 00:17:40;;;;;;;0.20;0.20;;;;;;;12.02;84.25;97501.03;4953970;28;20400;-73
2022/02/17 00:20:06;;;;;;;0.40;0.40;;;;;;;12.09;83.74;97506.84;4953751;28;20027;-73
2022/02/17 00:22:32;;;;;;;0.30;0.30;;;;;;;12.15;82.86;97495.31;4952619;29;20038;-73
2022/02/17 00:24:57;;;;;;;0.55;0.47;;;;;;;12.22;82.53;97484.56;4954009;28;20058;-73
2022/02/17 00:27:22;;;;;;;0.35;0.35;;;;;;;12.26;81.96;97477.50;4952604;29;20472;-73
2022/02/17 00:29:47;;;;;;;0.30;0.30;;;;;;;12.27;81.82;97472.22;4953858;28;20031;-73
2022/02/17 00:32:13;;;;;;;0.30;0.30;;;;;;;12.32;81.79;97466.81;4952413;28;20027;-73
2022/02/17 00:34:38;;;;;;;0.25;0.25;;;;;;;12.42;80.37;97451.63;4945726;28;20396;-73
2022/02/17 00:37:05;;;;;;;0.30;0.30;;;;;;;12.42;80.17;97457.69;4953604;28;20068;-72
2022/02/17 00:39:32;;;;;;;0.30;0.30;;;;;;;12.46;80.01;97448.84;4953969;28;20031;-72
2022/02/17 00:41:57;;;;;;;0.30;0.30;;;;;;;12.47;80.04;97455.69;4953698;28;20078;-72
2022/02/17 00:44:24;;;;;;;0.25;0.25;;;;;;;12.40;80.16;97449.13;4953805;29;20059;-73
2022/02/17 00:46:49;;;;;;;0.30;0.30;;;;;;;12.43;80.10;97451.59;4953502;28;20027;-73
2022/02/17 00:49:15;;;;;;;0.30;0.30;;;;;;;12.40;80.05;97467.31;4953615;28;20098;-73
2022/02/17 00:51:40;;;;;;;0.30;0.30;;;;;;;12.32;80.35;97472.00;4953697;28;20102;-73
2022/02/17 00:54:05;;;;;;;0.30;0.30;;;;;;;12.40;79.89;97475.09;4953707;29;20035;-73
2022/02/17 00:56:31;;;;;;;0.30;0.30;;;;;;;12.41;79.68;97476.78;4953511;28;20031;-73
2022/02/17 00:58:57;;;;;;;0.30;0.30;;;;;;;12.34;79.29;97470.19;4953538;28;20085;-72
2022/02/17 05:17:23;;;;;;;0.20;0.20;;;;;;;11.70;87.01;97473.03;5036063;23;20047;-68
2022/02/17 05:19:48;;;;;;;0.30;0.30;;;;;;;11.62;87.90;97468.19;4957267;28;20038;-68
2022/02/17 05:22:14;;;;;;;0.35;0.35;;;;;;;11.61;88.28;97468.25;4957236;28;20424;-68
2022/02/17 05:24:39;;;;;;;0.30;0.30;;;;;;;11.58;88.15;97464.88;4957163;28;20038;-68
2022/02/17 05:27:04;;;;;;;0.40;0.40;;;;;;;11.66;87.69;97476.69;4941320;28;20481;-68
2022/02/17 05:29:30;;;;;;;0.30;0.30;;;;;;;11.72;86.73;97481.59;4889143;29;20031;-69
2022/02/17 05:31:55;;;;;;;0.30;0.30;;;;;;;11.62;88.07;97491.53;4921635;29;20115;-69
2022/02/17 05:34:21;;;;;;;0.30;0.30;;;;;;;11.69;87.50;97513.69;4948969;29;20031;-69
2022/02/17 05:36:46;;;;;;;0.22;0.22;;;;;;;11.70;86.81;97519.72;4956899;28;20082;-69
2022/02/17 05:39:12;;;;;;;0.32;0.32;;;;;;;11.74;85.86;97529.06;4956891;29;20059;-69
2022/02/17 05:41:38;;;;;;;0.40;0.40;;;;;;;11.74;85.49;97521.28;4956847;29;20031;-69
2022/02/17 05:44:04;;;;;;;0.30;0.30;;;;;;;11.91;83.46;97518.03;4956724;29;20114;-69
2022/02/17 05:46:29;;;;;;;0.20;0.20;;;;;;;11.94;83.29;97529.13;4956534;28;20037;-68
2022/02/17 05:48:55;;;;;;;0.30;0.30;;;;;;;11.57;88.22;97569.56;4956649;29;20396;-69
2022/02/17 05:51:20;;;;;;;0.30;0.30;;;;;;;11.25;91.00;97572.63;4956681;28;20019;-69
2022/02/17 05:53:47;;;;;;;0.30;0.30;;;;;;;10.90;95.36;97587.81;4956513;29;20059;-69
2022/02/17 05:56:12;;;;;;;6.75;1.38;;;;;;;10.72;94.69;97591.94;4956298;28;20457;-69
2022/02/17 05:58:38;;;;;;;0.40;0.40;;;;;;;10.62;94.43;97594.94;4955217;29;20031;-69
2022/02/17 06:01:04;;;;;;;0.40;0.40;;;;;;;10.49;92.66;97590.22;4956373;29;20516;-69
2022/02/17 06:03:29;;;;;;;0.40;0.40;;;;;;;10.39;92.04;97596.59;4949341;29;20035;-67
2022/02/17 06:05:55;;;;;;;0.45;0.45;;;;;;;10.42;90.11;97609.47;4953611;28;20473;-68
2022/02/17 06:08:21;;;;;;;0.30;0.30;;;;;;;10.33;89.62;97612.38;4956556;29;20031;-69
2022/02/17 06:10:47;;;;;;;0.38;0.38;;;;;;;10.31;89.54;97611.59;4956393;29;20030;-69
2022/02/17 06:13:12;;;;;;;0.40;0.40;;;;;;;10.22;90.02;97622.25;4956307;29;20642;-68
2022/02/17 06:15:37;;;;;;;0.30;0.30;;;;;;;10.25;88.53;97606.63;4938647;29;20135;-69
2022/02/17 06:18:04;;;;;;;0.50;0.50;;;;;;;10.36;87.36;97625.22;4956053;29;20472;-69
2022/02/17 06:20:30;;;;;;;3.95;0.57;;;;;;;10.37;87.28;97632.09;4956098;29;20093;-69
2022/02/17 06:22:55;;;;;;;1.48;1.38;;;;;;;10.34;87.69;97634.78;4956158;29;20408;-68
2022/02/17 06:25:21;;;;;;;1.08;0.93;;;;;;;10.29;87.89;97634.94;4938727;28;20035;-68
2022/02/17 06:27:48;;;;;;;0.30;0.30;;;;;;;10.27;88.22;97635.91;4938570;29;20023;-68
2022/02/17 06:30:14;;;;;;;0.40;0.40;;;;;;;10.34;87.52;97624.41;4955816;29;20058;-67
2022/02/17 06:32:56;;;;;;;0.82;0.82;;;;;;;10.30;87.75;97630.63;4938582;29;20492;-68
2022/02/17 06:35:26;;;;;;;0.95;0.95;;;;;;;10.34;87.43;97637.34;4941552;28;20035;-68
2022/02/17 06:37:52;;;;;;;0.80;0.68;;;;;;;10.37;87.51;97662.31;4955730;29;20027;-68
2022/02/17 06:40:19;;;;;;;0.40;0.40;;;;;;;10.41;87.05;97666.50;4955904;29;20027;-69
2022/02/17 06:42:46;;;;;;;0.40;0.40;;;;;;;10.53;85.30;97658.25;4938583;29;20030;-68
2022/02/17 06:45:12;;;;;;;0.75;0.70;;;;;;;10.58;84.62;97663.28;4956001;28;20078;-69
2022/02/17 06:47:38;;;;;;;0.50;0.50;;;;;;;10.60;84.05;97658.91;4955505;29;20102;-70
2022/02/17 06:50:05;;;;;;;0.30;0.30;;;;;;;10.61;82.68;97673.53;4955728;29;20030;-68
2022/02/17 06:52:32;;;;;;;0.98;0.98;;;;;;;10.75;80.01;97684.25;4955481;29;20019;-69
2022/02/17 06:54:57;;;;;;;2.58;1.27;;;;;;;10.88;77.81;97674.28;4938367;29;20445;-68
2022/02/17 06:57:23;;;;;;;0.40;0.40;;;;;;;10.84;77.73;97694.28;4955054;28;20077;-69
2022/02/17 06:59:53;;;;;;;0.30;0.30;;;;;;;10.86;76.88;97713.22;4955418;29;20043;-68
2022/02/17 07:02:24;;;;;;;;;;;;;;;10.84;76.51;97678.75;4953910;29;20030;-69
2022/02/17 07:04:50;;;;;;;1.63;1.52;;;;;;;10.77;77.08;97719.56;4946898;29;19914;-69
2022/02/17 07:07:16;;;;;;;0.40;0.40;;;;;;;10.74;77.43;97692.94;4937827;29;20370;-69
2022/02/17 07:09:41;;;;;;;0.40;0.40;;;;;;;10.73;77.43;97691.22;4938128;29;20023;-67
2022/02/17 07:12:07;;;;;;;0.30;0.30;;;;;;;10.72;77.85;97697.31;4955054;29;20038;-68
2022/02/17 07:14:32;;;;;;;0.32;0.32;;;;;;;10.68;77.57;97687.94;4938108;29;20031;-67
2022/02/17 07:16:59;;;;;;;0.70;0.70;;;;;;;10.64;77.44;97707.13;4954825;28;20163;-67
2022/02/17 07:19:25;;;;;;;0.70;0.70;;;;;;;10.66;77.06;97710.50;4955175;29;20023;-68
2022/02/17 07:21:51;;;;;;;1.05;0.82;;;;;;;10.66;76.77;97726.03;4954995;29;20468;-66
2022/02/17 07:24:20;;;;;;;0.60;0.60;;;;;;;10.67;76.17;97722.53;4953794;29;20121;-68
2022/02/17 07:26:46;;;;;;;0.30;0.30;;;;;;;10.84;72.58;97721.94;4954695;28;20065;-66
2022/02/17 07:29:13;;;;;;;0.65;0.65;;;;;;;10.89;71.10;97718.28;4954864;29;20062;-68
2022/02/17 07:31:38;;;;;;;0.32;0.32;;;;;;;10.86;71.39;97723.56;4954752;29;20015;-67
2022/02/17 07:34:04;;;;;;;0.38;0.38;;;;;;;10.96;70.71;97729.25;4945206;29;20378;-67
2022/02/17 07:36:30;;;;;;;1.10;1.05;;;;;;;10.95;70.38;97733.59;4954585;28;20473;-69
2022/02/17 07:38:55;;;;;;;1.13;1.05;;;;;;;10.95;70.30;97754.34;4954668;29;20102;-68
2022/02/17 07:41:21;;;;;;;0.40;0.40;;;;;;;10.93;70.71;97761.34;4954512;29;20541;-67
2022/02/17 07:43:46;;;;;;;0.45;0.45;;;;;;;10.94;70.99;97772.53;4954550;29;20035;-67
2022/02/17 07:46:12;;;;;;;0.98;0.40;;;;;;;11.00;70.53;97757.59;4937118;29;20078;-68
2022/02/17 07:48:38;;;;;;;1.10;1.10;;;;;;;10.97;71.63;97768.06;4937296;29;20035;-68
2022/02/17 07:51:04;;;;;;;7.22;1.80;;;;;;;10.81;72.43;97777.31;4954479;29;20107;-66
2022/02/17 07:53:29;;;;;;;1.30;1.05;;;;;;;10.87;71.79;97777.09;4954297;29;20043;-66
2022/02/17 07:55:54;;;;;;;10.95;1.17;;;;;;;10.89;71.85;97790.84;4954195;28;20023;-68
2022/02/17 07:58:20;;;;;;;1.20;1.02;;;;;;;11.00;70.20;97786.13;4954450;29;20023;-68
2022/02/17 08:00:46;;;;;;;0.30;0.30;;;;;;;11.01;69.46;97790.41;4954403;29;20038;-68
2022/02/17 08:03:13;;;;;;;0.88;0.82;;;;;;;10.97;69.72;97791.41;4949650;29;20032;-68
2022/02/17 08:05:39;;;;;;;1.75;1.02;;;;;;;11.00;68.87;97809.44;4949086;28;20054;-68
2022/02/17 08:08:08;;;;;;;0.60;0.60;;;;;;;11.17;67.70;97815.78;4954034;29;20030;-67
2022/02/17 08:10:37;;;;;;;3.65;0.65;;;;;;;11.22;67.02;97825.09;4954126;29;20293;-68
2022/02/17 08:13:04;;;;;;;1.13;0.75;;;;;;;11.31;67.24;97834.28;4954129;29;20035;-68
2022/02/17 08:15:30;;;;;;;0.90;0.82;;;;;;;11.47;65.85;97840.63;4953048;28;20042;-67
2022/02/17 08:17:56;;;;;;;6.30;0.90;;;;;;;11.66;64.55;97860.69;4921018;29;20065;-68
2022/02/17 08:20:21;;;;;;;0.88;0.60;;;;;;;11.78;63.89;97836.88;4953997;29;20054;-67
2022/02/17 08:22:52;;;;;;;0.57;0.47;;;;;;;11.62;63.78;97833.16;4953891;29;20104;-68
2022/02/17 08:25:20;;;;;;;0.63;0.63;;;;;;;11.48;64.23;97857.88;4954097;28;20106;-67
2022/02/17 08:27:46;;;;;;;0.50;0.50;;;;;;;11.67;63.77;97846.81;4953937;29;20033;-66
2022/02/17 08:30:12;;;;;;;0.35;0.35;;;;;;;11.63;64.27;97858.19;4953921;29;20031;-68
2022/02/17 08:32:38;;;;;;;0.43;0.43;;;;;;;12.01;63.35;97861.97;4936724;29;20094;-68
2022/02/17 08:35:05;;;;;;;4.63;1.35;;;;;;;11.94;63.98;97871.78;4945844;29;20034;-68
2022/02/17 08:37:30;;;;;;;0.50;0.50;;;;;;;11.71;64.04;97875.19;4952404;28;20027;-66
2022/02/17 08:39:56;;;;;;;3.10;0.65;;;;;;;11.66;64.99;97897.03;4954020;29;20551;-68
2022/02/17 08:42:21;;;;;;;10.25;1.02;;;;;;;12.00;62.45;97876.72;4953927;29;20464;-67
2022/02/17 08:44:47;;;;;;;0.90;0.60;;;;;;;11.55;63.57;97890.44;4953906;29;20039;-68
2022/02/17 08:47:14;;;;;;;3.75;1.23;;;;;;;11.67;63.83;97898.72;4953544;28;20455;-67
2022/02/17 08:49:40;;;;;;;0.40;0.40;;;;;;;11.56;62.13;97902.53;4953774;29;20027;-67
2022/02/17 08:52:06;;;;;;;1.60;1.50;;;;;;;11.48;63.38;97904.56;4953591;29;20026;-67
2022/02/17 08:54:31;;;;;;;0.40;0.40;;;;;;;11.21;61.12;97931.44;4953797;29;20035;-67
2022/02/17 08:56:56;;;;;;;14.13;1.63;;;;;;;11.12;59.21;97931.75;4953562;28;20110;-68
2022/02/17 08:59:22;;;;;;;1.50;1.38;;;;;;;11.25;55.76;97948.59;4953856;29;20396;-68
2022/02/17 09:01:47;;;;;;;2.75;1.70;;;;;;;11.34;56.39;97937.91;4952142;29;20400;-68
2022/02/17 09:04:13;;;;;;;4.75;1.77;;;;;;;11.41;55.80;97944.59;4945226;29;20050;-68
2022/02/17 09:06:38;;;;;;;1.20;0.77;;;;;;;11.27;54.83;97939.03;4952063;28;20023;-68
2022/02/17 09:09:04;;;;;;;0.50;0.50;;;;;;;11.23;55.29;97940.03;4936470;29;20519;-68
2022/02/17 09:11:29;;;;;;;1.42;1.33;;;;;;;11.54;55.31;97943.25;4953770;29;20046;-66
2022/02/17 09:13:55;;;;;;;0.50;0.50;;;;;;;12.28;53.30;97964.81;4953795;29;20372;-67
2022/02/17 09:16:20;;;;;;;0.68;0.63;;;;;;;12.41;53.62;97985.94;4936093;29;20404;-68
2022/02/17 09:18:46;;;;;;;0.75;0.75;;;;;;;12.03;53.98;97985.63;4953650;29;20031;-67
2022/02/17 09:21:13;;;;;;;0.75;0.75;;;;;;;12.20;53.15;97966.00;4953395;29;20095;-68
2022/02/17 09:23:39;;;;;;;1.15;1.10;;;;;;;12.65;53.20;97975.53;4953611;29;20150;-68
2022/02/17 09:26:06;;;;;;;2.65;1.55;;;;;;;12.91;52.39;97983.16;4953761;28;20137;-69
2022/02/17 09:28:31;;;;;;;0.40;0.40;;;;;;;13.39;51.25;97987.25;4957162;29;20031;-68
2022/02/17 09:30:57;;;;;;;3.60;2.28;;;;;;;12.46;52.29;98006.56;4955938;29;20030;-68
2022/02/17 09:33:22;;;;;;;0.63;0.63;;;;;;;11.75;53.93;98010.88;4950954;29;20028;-68
2022/02/17 09:35:48;;;;;;;0.80;0.80;;;;;;;11.74;54.93;98020.38;4953037;28;20086;-68
2022/02/17 09:38:15;;;;;;;1.52;1.08;;;;;;;11.38;54.04;98027.69;4956900;29;20552;-67
2022/02/17 09:40:42;;;;;;;10.07;1.70;;;;;;;11.19;54.29;98027.44;4957224;29;20255;-68
2022/02/17 09:43:08;;;;;;;2.53;1.02;;;;;;;11.00;55.70;98024.59;4956914;29;20102;-68
2022/02/17 09:45:36;;;;;;;3.80;1.00;;;;;;;10.93;55.57;98020.50;4956671;28;20034;-67
2022/02/17 09:48:04;;;;;;;0.40;0.40;;;;;;;11.09;55.38;98030.38;4956641;29;20492;-69
2022/02/17 09:50:30;;;;;;;1.48;1.45;;;;;;;11.03;56.42;98003.78;4939368;29;20042;-68
2022/02/17 09:52:55;;;;;;;9.18;1.40;;;;;;;10.90;56.86;98050.84;4956795;29;20396;-68
2022/02/17 09:55:21;;;;;;;0.40;0.40;;;;;;;10.74;58.26;98066.88;4956449;28;20027;-68
2022/02/17 09:57:47;;;;;;;0.75;0.55;;;;;;;10.59;59.86;98061.28;4956444;29;20507;-68
2022/02/17 10:00:13;;;;;;;3.72;1.95;;;;;;;10.70;58.97;98054.06;4939252;29;20057;-68
2022/02/17 10:02:38;;;;;;;1.00;0.65;;;;;;;10.74;59.29;98048.75;4939220;29;20568;-67
2022/02/17 10:05:06;;;;;;;0.60;0.60;;;;;;;10.81;58.26;98068.38;4948181;29;20114;-70
2022/02/17 10:07:40;;;;;;;0.68;0.68;;;;;;;10.81;58.13;98083.06;4956438;28;20066;-67
2022/02/17 10:10:14;;;;;;;5.07;0.85;;;;;;;10.59;58.84;98076.81;4956288;29;20543;-68
2022/02/17 10:12:59;;;;;;;0.60;0.60;;;;;;;10.55;59.50;98087.28;4939088;29;20027;-68
2022/02/17 10:15:26;;;;;;;0.50;0.50;;;;;;;10.59;59.77;98090.66;4955818;28;20115;-68
2022/02/17 10:18:12;;;;;;;1.85;0.75;;;;;;;11.06;56.90;98089.19;4938933;29;20396;-68
2022/02/17 10:21:05;;;;;;;0.65;0.65;;;;;;;11.12;55.31;98082.13;4956260;29;20031;-68
2022/02/17 10:23:33;;;;;;;0.40;0.40;;;;;;;10.83;56.23;98102.03;4956058;29;20563;-67
2022/02/17 10:26:02;;;;;;;0.70;0.70;;;;;;;10.69;56.32;98099.00;4938842;29;20046;-67
2022/02/17 10:28:29;;;;;;;9.02;3.60;;;;;;;10.47;56.73;98104.78;4923366;29;20034;-68
2022/02/17 10:30:56;;;;;;;3.53;1.02;;;;;;;10.39;57.68;98136.97;4955924;29;20035;-68
2022/02/17 10:33:21;;;;;;;0.70;0.70;;;;;;;10.23;60.13;98118.38;4949911;29;20100;-68
2022/02/17 10:35:54;;;;;;;0.40;0.40;;;;;;;10.14;60.14;98113.44;4951796;28;20484;-67
2022/02/17 10:38:20;;;;;;;0.65;0.65;;;;;;;10.17;59.11;98134.94;4937954;29;20089;-68
2022/02/17 10:40:51;;;;;;;0.70;0.70;;;;;;;10.29;59.51;98136.38;4938509;29;20038;-67
2022/02/17 10:43:16;;;;;;;0.85;0.50;;;;;;;11.05;57.54;98121.22;4955712;29;20085;-69
2022/02/17 10:45:44;;;;;;;0.95;0.65;;;;;;;11.27;57.75;98123.16;4955602;28;20114;-69
2022/02/17 10:48:16;;;;;;;7.63;2.40;;;;;;;10.62;59.40;98123.38;4955531;29;20039;-69
2022/02/17 10:50:43;;;;;;;1.10;1.10;;;;;;;10.68;60.19;98124.03;4955475;29;20046;-68
2022/02/17 10:53:23;;;;;;;4.03;1.20;;;;;;;10.77;59.64;98117.75;4955677;29;20023;-68
2022/02/17 10:55:52;;;;;;;0.45;0.45;;;;;;;12.40;55.97;98114.16;4955316;28;20472;-69
2022/02/17 10:58:18;;;;;;;1.88;0.80;;;;;;;14.57;50.57;98100.22;4955428;29;20065;-67
2022/02/17 11:00:45;;;;;;;0.80;0.80;;;;;;;13.15;52.57;98107.88;4955513;29;20473;-68
2022/02/17 11:03:10;;;;;;;1.45;0.88;;;;;;;12.40;55.54;98106.38;4950718;29;20392;-69
2022/02/17 11:05:38;;;;;;;3.58;0.98;;;;;;;12.07;56.01;98106.66;4950059;28;20030;-68
2022/02/17 11:08:05;;;;;;;4.93;2.05;;;;;;;11.86;57.12;98097.03;4955016;29;20027;-69
2022/02/17 11:10:30;;;;;;;0.60;0.60;;;;;;;11.57;57.59;98106.59;4955343;29;20053;-68
2022/02/17 11:12:58;;;;;;;0.30;0.30;;;;;;;11.41;56.98;98095.03;4955193;29;20026;-69
2022/02/17 11:15:24;;;;;;;0.52;0.52;;;;;;;11.44;56.95;98100.09;4954983;28;20214;-68
2022/02/17 11:17:50;;;;;;;3.67;0.88;;;;;;;11.56;57.17;98094.53;4954835;29;20064;-68
2022/02/17 11:20:18;;;;;;;0.50;0.50;;;;;;;11.63;55.92;98099.50;4955241;29;20035;-69
2022/02/17 11:22:50;;;;;;;0.32;0.32;;;;;;;11.54;54.52;98096.31;4954962;29;20030;-68
2022/02/17 11:25:16;;;;;;;3.47;0.85;;;;;;;11.59;52.67;98109.13;4955008;28;20421;-67
2022/02/17 11:28:15;;;;;;;1.33;0.70;;;;;;;12.55;51.61;98098.00;4992428;23;20019;-78
2022/02/17 11:30:42;;;;;;;1.35;0.80;;;;;;;12.13;50.78;98090.00;4928316;29;20035;-78
2022/02/17 11:33:27;;;;;;;2.92;2.42;;;;;;;12.21;49.48;98123.50;4943289;29;20489;-79
2022/02/17 11:36:19;;;;;;;2.38;1.23;;;;;;;13.72;46.77;98073.50;4951804;29;20387;-78
2022/02/17 11:38:52;;;;;;;1.55;1.30;;;;;;;13.60;45.76;98085.28;4954342;28;20027;-79
2022/02/17 11:41:27;;;;;;;1.98;1.38;;;;;;;14.01;44.82;98072.25;4954568;29;20500;-78
2022/02/17 11:44:06;;;;;;;0.70;0.70;;;;;;;13.15;46.00;98093.16;4954502;29;20041;-79
2022/02/17 11:46:40;;;;;;;3.40;0.80;;;;;;;13.25;44.13;98078.06;4954456;29;20035;-78
2022/02/17 11:49:08;;;;;;;1.55;0.95;;;;;;;14.05;43.54;98081.63;4954205;28;20067;-79
2022/02/17 11:51:34;;;;;;;1.92;0.75;;;;;;;12.96;44.78;98074.81;4954459;29;20073;-78
2022/02/17 11:54:18;;;;;;;0.40;0.40;;;;;;;13.33;42.31;98073.38;4954525;29;20058;-79
2022/02/17 11:56:52;;;;;;;4.95;0.50;;;;;;;14.46;40.94;98055.50;4954371;29;20027;-79
2022/02/17 11:59:24;;;;;;;1.90;1.75;;;;;;;13.85;41.04;98068.63;4954229;28;20102;-78
2022/02/17 12:01:51;;;;;;;0.40;0.40;;;;;;;14.45;40.71;98064.22;4952599;29;20031;-78
2022/02/17 12:04:17;;;;;;;0.50;0.50;;;;;;;13.48;41.49;98058.88;4942865;29;20028;-78
2022/02/17 12:06:59;;;;;;;3.40;1.75;;;;;;;13.93;40.90;98082.16;4935014;29;20451;-78
2022/02/17 12:09:44;;;;;;;2.30;1.05;;;;;;;13.96;41.56;98081.19;4934987;29;20035;-78
2022/02/17 12:12:13;;;;;;;0.50;0.50;;;;;;;14.03;40.49;98078.25;4933775;29;20034;-78
2022/02/17 12:14:49;;;;;;;0.47;0.47;;;;;;;14.14;40.27;98044.75;4934913;29;20404;-78
2022/02/17 12:17:15;;;;;;;8.45;1.65;;;;;;;13.79;40.78;98081.91;4934868;29;20035;-78
2022/02/17 12:19:41;;;;;;;2.38;0.95;;;;;;;13.70;40.35;98035.44;4934746;29;20028;-78
2022/02/17 12:22:12;;;;;;;7.65;1.88;;;;;;;13.37;41.41;98093.16;4934902;29;20023;-79
2022/02/17 12:24:42;;;;;;;2.88;1.38;;;;;;;13.61;40.74;98080.91;4934670;29;20067;-78
2022/02/17 12:27:10;;;;;;;0.75;0.75;;;;;;;13.92;42.60;98122.13;4934711;29;20429;-78
2022/02/17 12:29:37;;;;;;;0.47;0.47;;;;;;;13.61;41.73;98102.56;4934638;29;20515;-78
2022/02/17 12:32:05;;;;;;;0.50;0.50;;;;;;;13.89;41.52;98091.88;4936259;29;20028;-78
2022/02/17 12:34:31;;;;;;;1.95;1.05;;;;;;;12.96;42.93;98098.22;4945855;29;20031;-78
2022/02/17 12:36:57;;;;;;;3.10;1.83;;;;;;;13.46;44.98;98100.59;4953568;29;20118;-78
2022/02/17 12:39:30;;;;;;;2.72;1.00;;;;;;;13.46;43.98;98092.78;4936463;29;20035;-78
2022/02/17 12:42:00;;;;;;;4.30;1.75;;;;;;;13.04;45.06;98127.34;4953565;29;20469;-77
2022/02/17 12:44:35;;;;;;;2.05;0.90;;;;;;;12.74;44.67;98103.38;4953699;29;20031;-78
2022/02/17 12:47:01;;;;;;;0.77;0.77;;;;;;;12.95;43.94;98106.06;4953446;29;20027;-78
2022/02/17 12:49:29;;;;;;;0.20;0.20;;;;;;;13.15;43.37;98126.09;4953493;28;20027;-78
2022/02/17 12:52:08;;;;;;;2.33;1.45;;;;;;;12.98;43.58;98122.41;4953739;29;20019;-78
2022/02/17 12:54:37;;;;;;;4.82;0.98;;;;;;;13.29;43.36;98126.44;4953592;29;20480;-78
2022/02/17 12:57:06;;;;;;;0.40;0.40;;;;;;;13.09;43.18;98120.22;4953330;29;20031;-78
2022/02/17 12:59:31;;;;;;;1.75;1.17;;;;;;;13.16;43.64;98120.00;4952245;28;20322;-77
2022/02/17 13:01:59;;;;;;;1.95;1.77;;;;;;;12.55;44.62;98092.81;4953139;28;20082;-78
2022/02/17 13:04:25;;;;;;;0.63;0.63;;;;;;;12.63;44.37;98104.69;4949233;29;20439;-77
2022/02/17 13:06:51;;;;;;;8.18;2.50;;;;;;;12.29;44.24;98131.91;4957051;29;20066;-77
2022/02/17 13:09:16;;;;;;;3.60;1.48;;;;;;;12.96;43.84;98139.84;4957254;28;20090;-78
2022/02/17 13:11:51;;;;;;;0.90;0.90;;;;;;;12.93;42.67;98134.72;4944707;29;20024;-78
2022/02/17 13:14:17;;;;;;;3.13;1.27;;;;;;;12.55;43.30;98113.59;4938107;29;20047;-77
2022/02/17 13:16:57;;;;;;;1.00;0.98;;;;;;;12.80;42.91;98159.50;4937296;29;20125;-78
2022/02/17 13:19:37;;;;;;;16.40;2.03;;;;;;;12.71;43.09;98118.22;4943338;29;20127;-78
2022/02/17 13:22:03;;;;;;;4.63;0.77;;;;;;;12.72;43.15;98120.78;4936598;29;20547;-78
2022/02/17 13:24:28;;;;;;;3.20;1.88;;;;;;;12.94;43.68;98115.63;4937686;29;20115;-78
2022/02/17 13:27:05;;;;;;;1.08;0.60;;;;;;;13.21;43.98;98128.47;4937607;29;20039;-78
2022/02/17 13:29:30;;;;;;;1.05;0.98;;;;;;;12.38;44.66;98126.38;4920360;29;20043;-78
2022/02/17 13:31:56;;;;;;;1.15;1.15;;;;;;;12.16;45.37;98126.28;4938397;29;20480;-78
2022/02/17 13:34:29;;;;;;;6.03;1.15;;;;;;;12.27;46.34;98123.28;4948775;29;20031;-78
2022/02/17 13:37:04;;;;;;;0.68;0.68;;;;;;;12.24;45.92;98133.81;4956823;29;20543;-78
2022/02/17 13:39:29;;;;;;;1.23;0.85;;;;;;;12.02;46.23;98144.91;4956656;28;20057;-78
2022/02/17 13:42:03;;;;;;;1.52;1.42;;;;;;;12.11;46.18;98140.31;4955564;29;20480;-78
2022/02/17 13:44:37;;;;;;;0.60;0.60;;;;;;;12.48;46.20;98138.13;4956758;29;20080;-78
2022/02/17 13:47:05;;;;;;;3.30;1.17;;;;;;;12.58;44.98;98134.28;4956723;29;20100;-78
2022/02/17 13:49:30;;;;;;;1.30;1.10;;;;;;;12.50;44.59;98136.31;4956494;28;20027;-78
2022/02/17 13:51:56;;;;;;;0.60;0.60;;;;;;;12.53;44.49;98146.59;4956635;29;20031;-78
2022/02/17 13:54:22;;;;;;;1.40;1.23;;;;;;;12.51;44.50;98152.75;4956586;29;20484;-79
2022/02/17 13:56:48;;;;;;;1.17;0.88;;;;;;;12.21;44.88;98128.72;4956408;29;20500;-78
2022/02/17 13:59:14;;;;;;;1.30;1.23;;;;;;;12.42;45.00;98117.53;4956498;28;20062;-78
2022/02/17 14:01:40;;;;;;;1.38;1.15;;;;;;;12.72;44.82;98127.75;4955938;29;20030;-78
2022/02/17 14:04:11;;;;;;;6.45;1.67;;;;;;;12.82;44.90;98123.91;4947088;29;20063;-78
2022/02/17 14:06:36;;;;;;;4.40;1.50;;;;;;;12.53;44.68;98131.03;4956007;29;20055;-78
2022/02/17 14:09:01;;;;;;;1.92;0.73;;;;;;;12.36;44.66;98115.19;4956282;28;20027;-78
2022/02/17 14:11:27;;;;;;;0.47;0.47;;;;;;;12.24;44.88;98118.22;4956265;29;20054;-78
2022/02/17 14:13:52;;;;;;;1.45;0.90;;;;;;;12.05;44.64;98126.66;4954952;28;20524;-78
2022/02/17 14:16:18;;;;;;;0.50;0.50;;;;;;;12.20;44.34;98147.78;4954739;29;20043;-78
2022/02/17 14:18:43;;;;;;;8.93;2.47;;;;;;;12.08;44.32;98142.09;4956515;28;20027;-78
2022/02/17 14:21:09;;;;;;;1.85;1.50;;;;;;;12.14;44.67;98137.63;4955854;29;20023;-78
2022/02/17 14:23:35;;;;;;;1.83;1.67;;;;;;;12.34;44.11;98135.19;4956119;29;20436;-78
2022/02/17 14:26:01;;;;;;;3.53;0.73;;;;;;;12.28;44.54;98148.34;4955801;29;20031;-78
2022/02/17 14:28:26;;;;;;;1.15;1.00;;;;;;;12.22;43.92;98145.97;4955830;28;20488;-77
2022/02/17 14:30:52;;;;;;;0.98;0.68;;;;;;;12.06;44.13;98177.69;4955833;29;20112;-78
2022/02/17 14:33:19;;;;;;;2.10;1.15;;;;;;;11.98;44.38;98164.09;4950421;29;20470;-78
2022/02/17 14:35:46;;;;;;;0.80;0.80;;;;;;;11.98;44.52;98178.81;4951388;29;20038;-78
2022/02/17 14:38:12;;;;;;;6.00;0.90;;;;;;;12.19;44.61;98166.88;4955678;28;20023;-78
2022/02/17 14:40:40;;;;;;;3.28;1.23;;;;;;;12.14;44.80;98184.38;4955753;29;20055;-80
2022/02/17 14:43:06;;;;;;;2.38;0.82;;;;;;;11.94;44.24;98140.88;4955616;29;20047;-80
2022/02/17 14:45:33;;;;;;;0.40;0.40;;;;;;;11.88;45.14;98172.25;4955607;29;20042;-78
2022/02/17 14:47:58;;;;;;;17.00;0.68;;;;;;;11.85;44.70;98183.59;4955226;28;20118;-79
2022/02/17 14:50:27;;;;;;;0.98;0.98;;;;;;;11.81;45.11;98206.16;4955513;29;20071;-78
2022/02/17 14:52:53;;;;;;;1.88;0.75;;;;;;;11.71;45.70;98194.38;4955483;29;20024;-78
2022/02/17 14:55:19;;;;;;;0.85;0.85;;;;;;;11.72;45.41;98210.81;4955530;29;20102;-79
2022/02/17 14:57:44;;;;;;;0.85;0.85;;;;;;;11.96;44.88;98185.84;4937936;28;20532;-78
2022/02/17 15:00:11;;;;;;;1.35;1.25;;;;;;;12.14;44.34;98190.41;4955335;29;20389;-78
2022/02/17 15:02:36;;;;;;;4.57;1.05;;;;;;;12.06;44.58;98192.41;4953154;29;20030;-76
2022/02/17 15:05:03;;;;;;;2.65;1.00;;;;;;;11.91;45.33;98209.34;4947088;29;20110;-79
2022/02/17 15:07:28;;;;;;;1.48;0.95;;;;;;;11.78;45.51;98202.81;4938014;28;20038;-79
2022/02/17 15:09:54;;;;;;;1.45;1.00;;;;;;;11.67;45.86;98217.88;4955245;29;20035;-78
2022/02/17 15:12:19;;;;;;;0.88;0.63;;;;;;;11.68;46.36;98225.63;4953987;29;20383;-79
2022/02/17 15:14:44;;;;;;;8.23;1.05;;;;;;;11.69;46.49;98213.47;4955003;29;20119;-79
2022/02/17 15:17:10;;;;;;;4.95;0.73;;;;;;;11.78;46.70;98228.75;4954877;29;20027;-78
2022/02/17 15:22:20;;;;;;;0.65;0.65;;;;;;;11.50;46.91;98245.19;4955008;29;20038;-79
2022/02/17 15:24:46;;;;;;;1.52;1.20;;;;;;;11.50;47.65;98250.38;4954459;28;20027;-79
2022/02/17 15:27:12;;;;;;;0.75;0.70;;;;;;;11.74;47.11;98245.31;4954654;29;20030;-79
2022/02/17 15:29:37;;;;;;;2.28;1.48;;;;;;;11.66;46.39;98234.34;4954591;28;20038;-79
2022/02/17 15:32:03;;;;;;;1.17;0.73;;;;;;;11.68;46.24;98242.94;4952794;29;20529;-79
2022/02/17 15:34:28;;;;;;;0.40;0.40;;;;;;;11.75;46.60;98263.47;4946673;29;20049;-79
2022/02/17 15:36:54;;;;;;;0.40;0.40;;;;;;;11.80;46.29;98261.56;4954568;29;20031;-79
2022/02/17 15:39:19;;;;;;;1.35;0.93;;;;;;;11.68;45.93;98253.31;4954486;28;20023;-79
2022/02/17 15:41:44;;;;;;;1.13;1.10;;;;;;;11.75;46.44;98257.44;4937193;29;20027;-79
2022/02/17 15:44:10;;;;;;;1.48;1.27;;;;;;;11.63;46.45;98252.59;4954559;29;20484;-79
2022/02/17 15:46:35;;;;;;;0.95;0.93;;;;;;;11.63;47.09;98257.78;4954288;29;20031;-78
2022/02/17 15:49:00;;;;;;;0.77;0.75;;;;;;;11.59;46.84;98239.72;4954222;28;20035;-78
2022/02/17 15:51:26;;;;;;;0.93;0.93;;;;;;;11.65;46.95;98263.78;4954525;29;20448;-77
2022/02/17 15:53:54;;;;;;;4.22;0.73;;;;;;;11.70;47.79;98267.06;4954418;29;20023;-78